Terminal Aerodrome Forecast
Issued by NWS Newport/Morehead City, NC

Home | Current Version | Previous Version | Text Only | Print | Product List | Glossary On
Versions: 1 2 3 4 5 6 7 8 9 10 11 12 13 14 15 16 17 18 19 20 21
000
FTUS42 KMHX 180900 AAA
TAFEWN
TAF AMD
KEWN 180913Z 1809/1906 01008KT P6SM BKN010
     FM181100 03010KT P6SM OVC008
     FM181500 04010KT P6SM OVC030
     FM181800 06008KT P6SM OVC035
     FM190000 08010KT P6SM VCSH OVC040=

USA.gov is the U.S. government's official web portal to all federal, state and local government web resources and services.